Terminal Aerodrome Forecast
Issued by NWS Albany, NY

Home | Current Version | Previous Version | Text Only | Print | Product List | Glossary On
Versions: 1 2 3 4 5 6 7 8 9 10 11 12 13 14 15 16 17 18 19 20 21
000
FTUS41 KALY 301124
TAFALB
TAF
KALB 301124Z 3012/0112 01010KT P6SM SCT070
     FM301500 04006KT P6SM VCSH BKN050
     FM010600 11004KT P6SM BKN025
     FM010800 16011KT P6SM BKN015=

USA.gov is the U.S. government's official web portal to all federal, state and local government web resources and services.